createdAt,value
2019-05-07T00:01:06.357Z,4.70
2019-05-07T00:03:35.642Z,4.70
2019-05-07T00:06:05.034Z,4.70
2019-05-07T00:08:34.382Z,4.70
2019-05-07T00:11:04.010Z,4.70
2019-05-07T00:13:33.489Z,4.70
2019-05-07T00:16:02.856Z,4.70
2019-05-07T00:18:32.516Z,4.70
2019-05-07T00:21:03.523Z,4.70
2019-05-07T00:23:32.874Z,4.70
2019-05-07T00:26:03.492Z,4.70
2019-05-07T00:28:33.323Z,4.70
2019-05-07T00:31:03.023Z,4.70
2019-05-07T00:33:33.374Z,4.70
2019-05-07T00:36:12.421Z,4.70
2019-05-07T00:38:43.954Z,4.70
2019-05-07T00:41:22.908Z,4.70
2019-05-07T00:43:54.142Z,4.70
2019-05-07T00:46:26.354Z,4.70
2019-05-07T00:48:55.646Z,4.70
2019-05-07T00:51:35.884Z,4.70
2019-05-07T00:54:05.982Z,4.70
2019-05-07T00:56:35.623Z,4.70
2019-05-07T00:59:05.069Z,4.70
2019-05-07T01:01:34.929Z,4.70
2019-05-07T01:04:04.359Z,4.70
2019-05-07T01:06:33.632Z,4.70
2019-05-07T01:09:04.427Z,4.70
2019-05-07T01:11:33.823Z,4.70
2019-05-07T01:14:03.120Z,4.70
2019-05-07T01:16:32.989Z,4.70
2019-05-07T01:19:02.806Z,4.70
2019-05-07T01:21:32.636Z,4.60
2019-05-07T01:24:03.280Z,4.60
2019-05-07T01:26:37.719Z,4.60
2019-05-07T01:29:08.136Z,4.60
2019-05-07T01:31:43.960Z,4.60
2019-05-07T01:34:32.311Z,4.60
2019-05-07T01:37:02.707Z,4.60
2019-05-07T01:39:32.778Z,4.60
2019-05-07T01:42:02.378Z,4.60
2019-05-07T01:44:32.662Z,4.50
2019-05-07T01:47:02.700Z,4.50
2019-05-07T01:49:33.254Z,4.50
2019-05-07T01:52:03.096Z,4.50
2019-05-07T01:54:33.316Z,4.50
2019-05-07T01:57:03.117Z,4.50
2019-05-07T01:59:32.558Z,4.40
2019-05-07T02:02:08.007Z,4.40
2019-05-07T02:05:03.235Z,4.40
2019-05-07T02:07:37.140Z,4.40
2019-05-07T02:10:24.375Z,4.40
2019-05-07T02:12:53.750Z,4.40
2019-05-07T02:15:24.524Z,4.40
2019-05-07T02:17:53.803Z,4.40
2019-05-07T02:20:23.073Z,4.40
2019-05-07T02:22:53.219Z,4.40
2019-05-07T02:25:23.366Z,4.40
2019-05-07T02:27:53.108Z,4.40
2019-05-07T02:30:23.884Z,4.40
2019-05-07T02:32:54.234Z,4.40
2019-05-07T02:35:24.395Z,4.40
2019-05-07T02:38:05.054Z,4.40
2019-05-07T02:40:43.402Z,4.40
2019-05-07T02:43:14.044Z,4.40
2019-05-07T02:46:19.862Z,4.40
2019-05-07T02:48:36.786Z,4.40
2019-05-07T02:51:13.224Z,4.40
2019-05-07T02:54:06.996Z,4.40
2019-05-07T02:56:36.275Z,4.40
2019-05-07T02:59:05.549Z,4.40
2019-05-07T03:01:34.895Z,4.40
2019-05-07T03:04:04.161Z,4.40
2019-05-07T03:06:34.219Z,4.40
2019-05-07T03:09:04.558Z,4.40
2019-05-07T03:11:34.242Z,4.40
2019-05-07T03:14:04.000Z,4.40
2019-05-07T03:16:43.101Z,4.40
2019-05-07T03:19:04.379Z,4.50
2019-05-07T03:21:53.852Z,4.50
2019-05-07T03:24:28.225Z,4.50
2019-05-07T03:26:58.428Z,4.50
2019-05-07T03:29:27.829Z,4.40
2019-05-07T03:32:16.430Z,4.50
2019-05-07T03:34:58.061Z,4.50
2019-05-07T03:37:35.108Z,4.50
2019-05-07T03:40:03.510Z,4.50
2019-05-07T03:42:33.517Z,4.50
2019-05-07T03:45:29.084Z,4.50
2019-05-07T03:48:17.650Z,4.50
2019-05-07T03:50:46.971Z,4.40
2019-05-07T03:53:16.265Z,4.50
2019-05-07T03:55:45.535Z,4.50
2019-05-07T03:58:17.081Z,4.50
2019-05-07T04:00:46.814Z,4.50
2019-05-07T04:03:19.447Z,4.50
2019-05-07T04:05:47.110Z,4.60
2019-05-07T04:08:16.849Z,4.60
2019-05-07T04:10:46.144Z,4.60
2019-05-07T04:13:17.827Z,4.60
2019-05-07T04:15:47.106Z,4.70
2019-05-07T04:18:16.403Z,4.70
2019-05-07T04:20:46.206Z,4.60
2019-05-07T04:23:15.829Z,4.70
2019-05-07T04:26:04.241Z,4.70
2019-05-07T04:29:04.897Z,4.70
2019-05-07T04:31:43.719Z,4.80
2019-05-07T04:34:33.685Z,4.80
2019-05-07T04:37:04.280Z,4.90
2019-05-07T04:39:33.605Z,4.90
2019-05-07T04:42:03.534Z,5.00
2019-05-07T04:44:33.382Z,5.10
2019-05-07T04:47:04.353Z,5.20
2019-05-07T04:49:36.058Z,5.20
2019-05-07T04:52:15.294Z,5.20
2019-05-07T04:54:44.587Z,5.30
2019-05-07T04:57:25.909Z,5.30
2019-05-07T05:00:03.706Z,5.40
2019-05-07T05:03:03.411Z,5.50
2019-05-07T05:05:37.456Z,5.60
2019-05-07T05:08:13.334Z,5.70
2019-05-07T05:10:50.042Z,5.70
2019-05-07T05:13:23.232Z,5.80
2019-05-07T05:15:55.537Z,5.80
2019-05-07T05:18:26.316Z,5.80
2019-05-07T05:21:12.924Z,5.80
2019-05-07T05:23:53.715Z,5.90
2019-05-07T05:26:29.824Z,5.80
2019-05-07T05:29:06.371Z,5.80
2019-05-07T05:31:38.462Z,5.90
2019-05-07T05:34:08.708Z,5.90
2019-05-07T05:36:38.046Z,5.80
2019-05-07T05:39:13.164Z,5.90
2019-05-07T05:41:48.584Z,5.80
2019-05-07T05:44:36.269Z,5.90
2019-05-07T05:47:11.733Z,5.90
2019-05-07T05:49:50.459Z,5.80
2019-05-07T05:52:39.523Z,5.80
2019-05-07T05:55:15.159Z,5.80
2019-05-07T05:58:07.626Z,5.90
2019-05-07T06:01:14.165Z,5.80
2019-05-07T06:03:55.624Z,5.80
2019-05-07T06:06:48.126Z,5.80
2019-05-07T06:09:43.128Z,5.80
2019-05-07T06:12:46.184Z,5.70
2019-05-07T06:15:43.316Z,5.80
2019-05-07T06:18:32.922Z,5.80
2019-05-07T06:21:26.965Z,5.90
2019-05-07T06:23:59.179Z,6.00
2019-05-07T06:26:31.934Z,6.10
2019-05-07T06:29:02.422Z,6.20
2019-05-07T06:31:32.796Z,6.20
2019-05-07T06:34:02.075Z,6.20
2019-05-07T06:36:42.374Z,6.30
2019-05-07T06:39:26.755Z,6.40
2019-05-07T06:42:17.281Z,6.50
2019-05-07T06:45:04.855Z,6.60
2019-05-07T06:47:37.411Z,6.60
2019-05-07T06:50:15.016Z,6.70
2019-05-07T06:52:45.706Z,6.70
2019-05-07T06:55:18.291Z,6.80
2019-05-07T06:57:52.956Z,6.80
2019-05-07T07:01:04.819Z,6.90
2019-05-07T07:03:49.260Z,6.90
2019-05-07T07:06:24.576Z,7.00
2019-05-07T07:09:15.905Z,7.10
2019-05-07T07:11:52.800Z,7.20
2019-05-07T07:14:26.005Z,7.20
2019-05-07T07:16:59.044Z,7.30
2019-05-07T07:19:49.422Z,7.50
2019-05-07T07:22:43.854Z,7.60
2019-05-07T07:25:18.907Z,7.70
2019-05-07T07:27:53.175Z,7.80
2019-05-07T07:30:45.233Z,7.90
2019-05-07T07:33:17.911Z,7.90
2019-05-07T07:35:49.268Z,7.90
2019-05-07T07:38:42.087Z,8.00
2019-05-07T07:41:33.440Z,8.10
2019-05-07T07:44:02.808Z,8.10
2019-05-07T07:46:33.093Z,8.30
2019-05-07T07:49:10.722Z,8.30
2019-05-07T07:51:41.146Z,8.50
2019-05-07T07:54:04.810Z,8.60
2019-05-07T07:56:56.352Z,8.70
2019-05-07T07:59:42.143Z,8.80
2019-05-07T08:02:16.466Z,8.70
2019-05-07T08:04:45.774Z,8.70
2019-05-07T08:07:15.850Z,8.80
2019-05-07T08:09:47.643Z,8.70
2019-05-07T08:12:16.887Z,8.70
2019-05-07T08:14:46.248Z,8.70
2019-05-07T08:17:15.548Z,8.80
2019-05-07T08:19:47.582Z,8.70
2019-05-07T08:22:18.093Z,8.60
2019-05-07T08:24:48.686Z,8.70
2019-05-07T08:27:18.084Z,8.80
2019-05-07T08:29:47.525Z,8.80
2019-05-07T08:32:54.186Z,8.90
2019-05-07T08:35:52.176Z,9.00
2019-05-07T08:38:21.963Z,9.10
2019-05-07T08:40:52.086Z,9.00
2019-05-07T08:43:22.923Z,9.00
2019-05-07T08:46:28.545Z,8.90
2019-05-07T08:49:03.102Z,8.90
2019-05-07T08:51:48.826Z,8.70
2019-05-07T08:54:22.591Z,8.70
2019-05-07T08:57:02.058Z,8.70
2019-05-07T08:59:46.758Z,8.60
2019-05-07T09:02:26.331Z,8.60
2019-05-07T09:05:09.246Z,8.70
2019-05-07T09:07:42.555Z,8.80
2019-05-07T09:10:16.232Z,8.70
2019-05-07T09:12:53.825Z,8.70
2019-05-07T09:15:48.936Z,8.60
2019-05-07T09:18:22.995Z,8.60
2019-05-07T09:20:53.412Z,8.70
2019-05-07T09:23:43.528Z,8.80
2019-05-07T09:26:14.882Z,8.90
2019-05-07T09:29:07.722Z,9.10
2019-05-07T09:31:56.407Z,9.20
2019-05-07T09:34:27.218Z,9.20
2019-05-07T09:36:58.606Z,9.30
2019-05-07T09:39:28.315Z,9.20
2019-05-07T09:41:58.125Z,9.20
2019-05-07T09:44:27.551Z,9.30
2019-05-07T09:47:02.520Z,9.20
2019-05-07T09:49:32.648Z,9.30
2019-05-07T09:52:03.245Z,9.50
2019-05-07T09:54:33.209Z,9.70
2019-05-07T09:57:02.587Z,9.90
2019-05-07T09:59:32.519Z,10.00
2019-05-07T10:02:02.036Z,10.10
2019-05-07T10:04:32.848Z,10.20
2019-05-07T10:07:05.588Z,10.30
2019-05-07T10:09:37.117Z,10.40
2019-05-07T10:12:14.619Z,10.50
2019-05-07T10:14:45.539Z,10.60
2019-05-07T10:17:34.966Z,10.80
2019-05-07T10:20:19.403Z,10.90
2019-05-07T10:22:53.523Z,10.90
2019-05-07T10:25:39.043Z,11.00
2019-05-07T10:28:09.019Z,11.10
2019-05-07T10:30:42.668Z,11.10
2019-05-07T10:33:12.340Z,11.10
2019-05-07T10:35:43.481Z,11.20
2019-05-07T10:38:15.137Z,11.20
2019-05-07T10:40:45.761Z,11.20
2019-05-07T10:43:19.363Z,11.20
2019-05-07T10:46:06.025Z,11.10
2019-05-07T10:49:01.982Z,11.20
2019-05-07T10:51:42.421Z,11.30
2019-05-07T10:54:12.595Z,11.40
2019-05-07T10:56:46.731Z,11.40
2019-05-07T10:59:16.531Z,11.40
2019-05-07T11:01:54.868Z,11.30
2019-05-07T11:04:39.039Z,11.20
2019-05-07T11:06:57.686Z,11.10
2019-05-07T11:09:29.067Z,11.00
2019-05-07T11:12:02.404Z,11.00
2019-05-07T11:14:33.745Z,10.80
2019-05-07T11:17:17.055Z,10.90
2019-05-07T11:19:57.620Z,11.00
2019-05-07T11:22:32.744Z,11.00
2019-05-07T11:25:08.166Z,11.00
2019-05-07T11:27:45.744Z,11.10
2019-05-07T11:30:18.757Z,11.20
2019-05-07T11:32:57.361Z,11.30
2019-05-07T11:35:34.344Z,11.40
2019-05-07T11:38:18.647Z,11.50
2019-05-07T11:40:48.973Z,11.40
2019-05-07T11:43:49.617Z,11.50
2019-05-07T11:46:36.635Z,11.50
2019-05-07T11:49:33.296Z,11.60
2019-05-07T11:52:22.823Z,11.80
2019-05-07T11:54:57.938Z,12.00
2019-05-07T11:57:34.707Z,12.10
2019-05-07T12:00:12.772Z,12.10
2019-05-07T12:02:47.317Z,12.00
2019-05-07T12:05:22.542Z,12.10
2019-05-07T12:07:56.139Z,12.10
2019-05-07T12:10:32.578Z,11.90
2019-05-07T12:13:08.992Z,11.80
2019-05-07T12:15:52.603Z,11.70
2019-05-07T12:18:26.618Z,11.70
2019-05-07T12:21:17.647Z,11.80
2019-05-07T12:23:38.009Z,11.70
2019-05-07T12:26:12.374Z,11.70
2019-05-07T12:28:46.108Z,11.80
2019-05-07T12:31:48.940Z,11.80
2019-05-07T12:34:43.205Z,11.90
2019-05-07T12:37:14.233Z,11.80
2019-05-07T12:39:44.939Z,11.60
2019-05-07T12:42:15.247Z,11.50
2019-05-07T12:44:44.482Z,11.60
2019-05-07T12:47:13.762Z,11.60
2019-05-07T12:49:44.683Z,11.60
2019-05-07T12:52:32.301Z,11.60
2019-05-07T12:55:11.939Z,11.40
2019-05-07T12:57:42.068Z,11.10
2019-05-07T13:00:34.522Z,11.10
2019-05-07T13:03:21.827Z,11.10
2019-05-07T13:05:52.449Z,11.00
2019-05-07T13:08:22.969Z,10.80
2019-05-07T13:10:56.729Z,10.60
2019-05-07T13:13:25.983Z,10.60
2019-05-07T13:15:58.178Z,10.40
2019-05-07T13:18:27.478Z,10.30
2019-05-07T13:20:57.196Z,10.20
2019-05-07T13:23:28.178Z,10.10
2019-05-07T13:26:12.389Z,10.10
2019-05-07T13:28:44.368Z,10.30
2019-05-07T13:31:36.617Z,10.40
2019-05-07T13:34:16.553Z,10.40
2019-05-07T13:37:13.535Z,10.50
2019-05-07T13:40:24.383Z,10.50
2019-05-07T13:43:24.798Z,10.60
2019-05-07T13:46:37.076Z,10.60
2019-05-07T13:49:43.055Z,10.80
2019-05-07T13:52:30.470Z,10.70
2019-05-07T13:55:12.838Z,10.40
2019-05-07T13:57:56.715Z,10.40
2019-05-07T14:00:42.627Z,10.40
2019-05-07T14:03:22.689Z,10.60
2019-05-07T14:06:04.545Z,10.50
2019-05-07T14:08:44.029Z,10.60
2019-05-07T14:11:26.648Z,10.70
2019-05-07T14:14:05.054Z,10.80
2019-05-07T14:16:58.160Z,10.60
2019-05-07T14:19:43.392Z,10.60
2019-05-07T14:22:23.156Z,10.80
2019-05-07T14:25:07.558Z,10.90
2019-05-07T14:28:02.241Z,11.10
2019-05-07T14:30:49.254Z,11.30
2019-05-07T14:33:47.894Z,11.40
2019-05-07T14:37:09.585Z,11.50
2019-05-07T14:39:52.523Z,11.50
2019-05-07T14:42:41.838Z,11.50
2019-05-07T14:45:23.995Z,11.40
2019-05-07T14:48:12.281Z,11.40
2019-05-07T14:50:56.562Z,11.40
2019-05-07T14:53:44.948Z,11.20
2019-05-07T14:56:44.163Z,11.10
2019-05-07T14:59:14.404Z,11.30
2019-05-07T15:01:52.213Z,11.40
2019-05-07T15:04:22.201Z,11.50
2019-05-07T15:07:02.434Z,11.70
2019-05-07T15:09:44.077Z,11.70
2019-05-07T15:12:29.960Z,11.60
2019-05-07T15:15:12.487Z,11.70
2019-05-07T15:18:04.104Z,11.80
2019-05-07T15:20:36.838Z,11.80
2019-05-07T15:23:19.999Z,11.80
2019-05-07T15:25:58.157Z,11.90
2019-05-07T15:28:37.300Z,12.00
2019-05-07T15:31:32.977Z,12.00
2019-05-07T15:34:30.029Z,12.00
2019-05-07T15:37:12.290Z,11.90
2019-05-07T15:39:53.258Z,11.80
2019-05-07T15:42:44.640Z,11.80
2019-05-07T15:45:26.530Z,11.80
2019-05-07T15:48:12.538Z,11.90
2019-05-07T15:50:51.859Z,12.10
2019-05-07T15:53:57.175Z,12.10
2019-05-07T15:56:37.091Z,12.20
2019-05-07T15:59:37.236Z,12.20
2019-05-07T16:02:45.375Z,12.20
2019-05-07T16:05:37.132Z,12.00
2019-05-07T16:08:22.651Z,11.80
2019-05-07T16:11:20.308Z,12.00
2019-05-07T16:14:28.179Z,12.10
2019-05-07T16:17:13.215Z,12.10
2019-05-07T16:19:55.200Z,12.10
2019-05-07T16:22:37.363Z,12.10
2019-05-07T16:25:14.000Z,12.20
2019-05-07T16:27:46.980Z,12.30
2019-05-07T16:30:19.548Z,12.50
2019-05-07T16:32:55.192Z,12.60
2019-05-07T16:35:26.272Z,12.80
2019-05-07T16:38:00.755Z,12.90
2019-05-07T16:40:32.131Z,13.00
2019-05-07T16:43:02.770Z,12.80
2019-05-07T16:45:34.495Z,12.90
2019-05-07T16:48:06.943Z,12.90
2019-05-07T16:50:38.204Z,13.00
2019-05-07T16:53:07.570Z,13.00
2019-05-07T16:55:37.360Z,13.10
2019-05-07T16:58:37.711Z,13.20
2019-05-07T17:01:08.939Z,13.30
2019-05-07T17:03:45.363Z,13.30
2019-05-07T17:06:16.564Z,13.30
2019-05-07T17:08:55.139Z,13.40
2019-05-07T17:11:25.593Z,13.40
2019-05-07T17:13:54.997Z,13.40
2019-05-07T17:16:24.356Z,13.40
2019-05-07T17:18:53.684Z,13.40
2019-05-07T17:21:22.965Z,13.30
2019-05-07T17:23:52.454Z,13.30
2019-05-07T17:26:23.219Z,13.30
2019-05-07T17:28:52.655Z,13.30
2019-05-07T17:31:23.949Z,13.40
2019-05-07T17:33:53.637Z,13.40
2019-05-07T17:36:23.017Z,13.30
2019-05-07T17:39:02.742Z,13.30
2019-05-07T17:41:45.421Z,13.30
2019-05-07T17:44:32.135Z,13.30
2019-05-07T17:47:23.231Z,13.30
2019-05-07T17:50:03.448Z,13.30
2019-05-07T17:53:04.828Z,13.30
2019-05-07T17:55:57.939Z,13.30
2019-05-07T17:58:44.244Z,13.20
2019-05-07T18:02:01.771Z,13.20
2019-05-07T18:04:58.878Z,13.10
2019-05-07T18:07:41.611Z,13.10
2019-05-07T18:10:27.204Z,13.00
2019-05-07T18:13:09.043Z,12.90
2019-05-07T18:16:02.764Z,12.90
2019-05-07T18:19:04.073Z,12.90
2019-05-07T18:21:54.386Z,12.80
2019-05-07T18:24:28.186Z,12.80
2019-05-07T18:27:13.158Z,12.80
2019-05-07T18:30:06.291Z,12.70
2019-05-07T18:32:44.753Z,12.70
2019-05-07T18:35:15.480Z,12.60
2019-05-07T18:38:02.480Z,12.50
2019-05-07T18:40:31.732Z,12.40
2019-05-07T18:43:03.070Z,12.10
2019-05-07T18:45:35.249Z,11.90
2019-05-07T18:48:16.158Z,11.90
2019-05-07T18:50:53.826Z,11.80
2019-05-07T18:53:29.159Z,11.70
2019-05-07T18:56:14.651Z,11.60
2019-05-07T18:58:48.460Z,11.40
2019-05-07T19:01:22.439Z,11.30
2019-05-07T19:03:53.472Z,11.00
2019-05-07T19:06:38.266Z,10.90
2019-05-07T19:09:29.401Z,10.80
2019-05-07T19:12:23.412Z,10.70
2019-05-07T19:14:56.648Z,10.50
2019-05-07T19:17:51.471Z,10.30
2019-05-07T19:20:32.640Z,10.10
2019-05-07T19:23:05.632Z,10.00
2019-05-07T19:25:36.808Z,9.80
2019-05-07T19:28:14.242Z,9.60
2019-05-07T19:30:43.257Z,9.50
2019-05-07T19:33:27.204Z,9.40
2019-05-07T19:35:56.965Z,9.30
2019-05-07T19:38:27.502Z,9.30
2019-05-07T19:41:02.209Z,9.30
2019-05-07T19:43:32.523Z,9.30
2019-05-07T19:46:02.994Z,9.30
2019-05-07T19:48:35.260Z,9.30
2019-05-07T19:51:17.594Z,9.30
2019-05-07T19:53:49.897Z,9.40
2019-05-07T19:56:24.862Z,9.40
2019-05-07T19:59:02.174Z,9.40
2019-05-07T20:01:39.830Z,9.30
2019-05-07T20:04:13.514Z,9.40
2019-05-07T20:07:03.042Z,9.30
2019-05-07T20:09:42.853Z,9.30
2019-05-07T20:12:26.607Z,9.30
2019-05-07T20:15:16.930Z,9.20
2019-05-07T20:18:03.114Z,9.20
2019-05-07T20:20:42.513Z,9.20
2019-05-07T20:23:20.299Z,9.10
2019-05-07T20:25:54.115Z,9.10
2019-05-07T20:28:26.578Z,9.10
2019-05-07T20:31:01.032Z,9.00
2019-05-07T20:33:32.636Z,8.90
2019-05-07T20:36:03.014Z,8.80
2019-05-07T20:38:33.748Z,8.80
2019-05-07T20:41:04.360Z,8.80
2019-05-07T20:43:35.181Z,8.70
2019-05-07T20:46:19.318Z,8.70
2019-05-07T20:48:52.581Z,8.60
2019-05-07T20:51:34.594Z,8.60
2019-05-07T20:54:34.655Z,8.70
2019-05-07T20:57:18.583Z,8.60
2019-05-07T20:59:48.490Z,8.60
2019-05-07T21:02:18.139Z,8.60
2019-05-07T21:04:51.880Z,8.50
2019-05-07T21:07:28.201Z,8.40
2019-05-07T21:10:01.947Z,8.50
2019-05-07T21:12:36.728Z,8.40
2019-05-07T21:15:12.358Z,8.40
2019-05-07T21:17:43.394Z,8.40
2019-05-07T21:20:16.628Z,8.40
2019-05-07T21:22:56.117Z,8.30
2019-05-07T21:25:42.080Z,8.40
2019-05-07T21:28:02.152Z,8.40
2019-05-07T21:30:32.784Z,8.30
2019-05-07T21:33:02.194Z,8.20
2019-05-07T21:35:32.060Z,8.20
2019-05-07T21:38:09.405Z,8.20
2019-05-07T21:40:42.667Z,8.20
2019-05-07T21:43:15.018Z,8.20
2019-05-07T21:45:48.024Z,8.20
2019-05-07T21:48:25.031Z,8.20
2019-05-07T21:51:02.467Z,8.10
2019-05-07T21:53:42.952Z,8.10
2019-05-07T21:56:34.705Z,8.10
2019-05-07T21:59:15.435Z,8.10
2019-05-07T22:01:47.649Z,8.00
2019-05-07T22:04:16.927Z,8.00
2019-05-07T22:06:52.334Z,7.90
2019-05-07T22:09:23.395Z,7.90
2019-05-07T22:11:53.981Z,7.90
2019-05-07T22:14:27.672Z,7.80
2019-05-07T22:17:15.766Z,7.80
2019-05-07T22:19:47.496Z,7.80
2019-05-07T22:22:33.066Z,7.80
2019-05-07T22:25:30.031Z,7.80
2019-05-07T22:28:13.244Z,7.80
2019-05-07T22:31:12.701Z,7.70
2019-05-07T22:34:29.984Z,7.70
2019-05-07T22:37:18.631Z,7.60
2019-05-07T22:40:07.963Z,7.60
2019-05-07T22:42:49.395Z,7.60
2019-05-07T22:45:23.959Z,7.50
2019-05-07T22:48:00.048Z,7.50
2019-05-07T22:50:34.150Z,7.50
2019-05-07T22:53:07.580Z,7.50
2019-05-07T22:55:36.954Z,7.50
2019-05-07T22:58:32.945Z,7.50
2019-05-07T23:01:06.104Z,7.50
2019-05-07T23:03:39.908Z,7.40
2019-05-07T23:06:12.482Z,7.50
2019-05-07T23:08:42.621Z,7.50
2019-05-07T23:11:15.914Z,7.40
2019-05-07T23:13:48.185Z,7.40
2019-05-07T23:16:17.494Z,7.40
2019-05-07T23:18:57.801Z,7.30
2019-05-07T23:21:27.809Z,7.30
2019-05-07T23:23:57.152Z,7.30
2019-05-07T23:26:29.792Z,7.20
2019-05-07T23:29:02.441Z,7.20
2019-05-07T23:31:31.778Z,7.20
2019-05-07T23:34:01.875Z,7.20
2019-05-07T23:36:31.388Z,7.20
2019-05-07T23:39:02.619Z,7.20
2019-05-07T23:41:38.162Z,7.20
2019-05-07T23:44:12.692Z,7.20
2019-05-07T23:46:45.360Z,7.20
2019-05-07T23:49:14.663Z,7.20
2019-05-07T23:51:44.317Z,7.20
2019-05-07T23:54:13.938Z,7.10
2019-05-07T23:56:46.359Z,7.20
2019-05-07T23:59:16.234Z,7.10
